sensor_id;sensor_type;location;lat;lon;timestamp;P1;durP1;ratioP1;P2;durP2;ratioP2
64018;SDS011;66942;52.138;5.216;2023-12-22T00:02:44;22.3;;;5.4;;
64018;SDS011;66942;52.138;5.216;2023-12-22T00:04:21;20.2;;;5.4;;
64018;SDS011;66942;52.138;5.216;2023-12-22T00:05:57;16.3;;;4.3;;
64018;SDS011;66942;52.138;5.216;2023-12-22T00:09:09;16.9;;;4.3;;
64018;SDS011;66942;52.138;5.216;2023-12-22T00:10:45;20.41;;;4.8;;
64018;SDS011;66942;52.138;5.216;2023-12-22T00:12:21;15.2;;;4.2;;
64018;SDS011;66942;52.138;5.216;2023-12-22T00:15:33;15.0;;;3.9;;
64018;SDS011;66942;52.138;5.216;2023-12-22T00:17:09;15.9;;;4.3;;
64018;SDS011;66942;52.138;5.216;2023-12-22T00:18:45;13.0;;;3.2;;
64018;SDS011;66942;52.138;5.216;2023-12-22T00:20:22;4.91;;;1.9;;
64018;SDS011;66942;52.138;5.216;2023-12-22T00:23:34;5.9;;;1.6;;
64018;SDS011;66942;52.138;5.216;2023-12-22T00:25:10;5.11;;;1.6;;
64018;SDS011;66942;52.138;5.216;2023-12-22T00:26:46;3.5;;;1.11;;
64018;SDS011;66942;52.138;5.216;2023-12-22T00:29:58;4.91;;;1.11;;
64018;SDS011;66942;52.138;5.216;2023-12-22T00:31:34;5.7;;;1.4;;
64018;SDS011;66942;52.138;5.216;2023-12-22T00:33:10;5.8;;;2.21;;
64018;SDS011;66942;52.138;5.216;2023-12-22T00:36:23;7.3;;;2.0;;
64018;SDS011;66942;52.138;5.216;2023-12-22T00:37:59;7.3;;;1.8;;
64018;SDS011;66942;52.138;5.216;2023-12-22T00:39:35;7.8;;;2.0;;
64018;SDS011;66942;52.138;5.216;2023-12-22T00:41:11;6.6;;;2.0;;
64018;SDS011;66942;52.138;5.216;2023-12-22T00:44:23;6.3;;;2.21;;
64018;SDS011;66942;52.138;5.216;2023-12-22T00:45:59;7.7;;;2.21;;
64018;SDS011;66942;52.138;5.216;2023-12-22T00:47:35;7.6;;;2.0;;
64018;SDS011;66942;52.138;5.216;2023-12-22T00:50:48;10.4;;;2.31;;
64018;SDS011;66942;52.138;5.216;2023-12-22T00:52:24;9.21;;;2.4;;
64018;SDS011;66942;52.138;5.216;2023-12-22T00:54:00;8.31;;;2.31;;
64018;SDS011;66942;52.138;5.216;2023-12-22T00:57:12;9.0;;;2.5;;
64018;SDS011;66942;52.138;5.216;2023-12-22T00:58:49;9.9;;;2.5;;
64018;SDS011;66942;52.138;5.216;2023-12-22T01:00:28;10.5;;;3.0;;
64018;SDS011;66942;52.138;5.216;2023-12-22T01:03:40;11.1;;;2.9;;
64018;SDS011;66942;52.138;5.216;2023-12-22T01:05:17;8.4;;;2.6;;
64018;SDS011;66942;52.138;5.216;2023-12-22T01:06:52;11.0;;;3.2;;
64018;SDS011;66942;52.138;5.216;2023-12-22T01:08:29;13.4;;;3.1;;
64018;SDS011;66942;52.138;5.216;2023-12-22T01:11:42;14.6;;;3.6;;
64018;SDS011;66942;52.138;5.216;2023-12-22T01:13:18;16.3;;;3.9;;
64018;SDS011;66942;52.138;5.216;2023-12-22T01:14:54;16.9;;;3.6;;
64018;SDS011;66942;52.138;5.216;2023-12-22T01:18:06;13.7;;;3.7;;
64018;SDS011;66942;52.138;5.216;2023-12-22T01:19:42;14.8;;;3.7;;
64018;SDS011;66942;52.138;5.216;2023-12-22T01:21:18;12.7;;;3.8;;
64018;SDS011;66942;52.138;5.216;2023-12-22T01:24:34;13.8;;;3.4;;
64018;SDS011;66942;52.138;5.216;2023-12-22T01:26:10;11.9;;;3.2;;
64018;SDS011;66942;52.138;5.216;2023-12-22T01:27:46;19.2;;;3.9;;
64018;SDS011;66942;52.138;5.216;2023-12-22T01:29:22;17.3;;;3.6;;
64018;SDS011;66942;52.138;5.216;2023-12-22T01:32:34;11.9;;;3.4;;
64018;SDS011;66942;52.138;5.216;2023-12-22T01:34:10;14.8;;;3.9;;
64018;SDS011;66942;52.138;5.216;2023-12-22T01:35:46;12.5;;;3.6;;
64018;SDS011;66942;52.138;5.216;2023-12-22T01:38:59;13.3;;;3.8;;
64018;SDS011;66942;52.138;5.216;2023-12-22T01:40:35;17.41;;;3.4;;
64018;SDS011;66942;52.138;5.216;2023-12-22T01:42:11;19.91;;;3.6;;
64018;SDS011;66942;52.138;5.216;2023-12-22T01:45:26;14.3;;;3.7;;
64018;SDS011;66942;52.138;5.216;2023-12-22T01:47:02;16.4;;;4.0;;
64018;SDS011;66942;52.138;5.216;2023-12-22T01:48:39;16.0;;;3.7;;
64018;SDS011;66942;52.138;5.216;2023-12-22T01:50:15;14.8;;;3.5;;
64018;SDS011;66942;52.138;5.216;2023-12-22T01:53:28;19.61;;;4.1;;
64018;SDS011;66942;52.138;5.216;2023-12-22T01:55:07;17.8;;;3.9;;
64018;SDS011;66942;52.138;5.216;2023-12-22T01:56:47;13.2;;;4.0;;
64018;SDS011;66942;52.138;5.216;2023-12-22T02:00:01;15.3;;;3.9;;
64018;SDS011;66942;52.138;5.216;2023-12-22T02:01:38;16.9;;;3.8;;
64018;SDS011;66942;52.138;5.216;2023-12-22T02:03:15;15.3;;;3.9;;
64018;SDS011;66942;52.138;5.216;2023-12-22T02:04:52;16.8;;;3.7;;
64018;SDS011;66942;52.138;5.216;2023-12-22T02:08:09;16.7;;;4.5;;
64018;SDS011;66942;52.138;5.216;2023-12-22T02:09:46;14.6;;;3.9;;
64018;SDS011;66942;52.138;5.216;2023-12-22T02:11:22;16.5;;;4.61;;
64018;SDS011;66942;52.138;5.216;2023-12-22T02:14:35;18.5;;;4.91;;
64018;SDS011;66942;52.138;5.216;2023-12-22T02:16:12;18.11;;;4.5;;
64018;SDS011;66942;52.138;5.216;2023-12-22T02:17:58;21.5;;;5.2;;
64018;SDS011;66942;52.138;5.216;2023-12-22T02:19:40;23.4;;;4.7;;
64018;SDS011;66942;52.138;5.216;2023-12-22T02:22:54;21.6;;;4.91;;
64018;SDS011;66942;52.138;5.216;2023-12-22T02:24:30;20.7;;;4.41;;
64018;SDS011;66942;52.138;5.216;2023-12-22T02:26:09;22.7;;;5.8;;
64018;SDS011;66942;52.138;5.216;2023-12-22T02:27:53;21.5;;;5.7;;
64018;SDS011;66942;52.138;5.216;2023-12-22T02:31:22;21.6;;;5.6;;
64018;SDS011;66942;52.138;5.216;2023-12-22T02:33:11;20.8;;;5.3;;
64018;SDS011;66942;52.138;5.216;2023-12-22T02:34:52;28.5;;;6.4;;
64018;SDS011;66942;52.138;5.216;2023-12-22T02:36:31;22.9;;;6.0;;
64018;SDS011;66942;52.138;5.216;2023-12-22T02:39:48;26.5;;;6.9;;
64018;SDS011;66942;52.138;5.216;2023-12-22T02:41:25;29.5;;;6.8;;
64018;SDS011;66942;52.138;5.216;2023-12-22T02:43:01;26.4;;;6.6;;
64018;SDS011;66942;52.138;5.216;2023-12-22T02:44:39;30.1;;;6.3;;
64018;SDS011;66942;52.138;5.216;2023-12-22T02:47:51;28.8;;;7.1;;
64018;SDS011;66942;52.138;5.216;2023-12-22T02:49:27;26.7;;;7.7;;
64018;SDS011;66942;52.138;5.216;2023-12-22T02:51:03;25.2;;;6.2;;
64018;SDS011;66942;52.138;5.216;2023-12-22T02:54:16;27.2;;;6.6;;
64018;SDS011;66942;52.138;5.216;2023-12-22T02:55:52;27.9;;;6.6;;
64018;SDS011;66942;52.138;5.216;2023-12-22T02:57:28;28.5;;;6.5;;
64018;SDS011;66942;52.138;5.216;2023-12-22T03:00:40;27.1;;;6.9;;
64018;SDS011;66942;52.138;5.216;2023-12-22T03:02:17;24.7;;;6.4;;
64018;SDS011;66942;52.138;5.216;2023-12-22T03:03:53;21.5;;;6.3;;
64018;SDS011;66942;52.138;5.216;2023-12-22T03:07:05;28.1;;;6.7;;
64018;SDS011;66942;52.138;5.216;2023-12-22T03:08:41;22.9;;;6.0;;
64018;SDS011;66942;52.138;5.216;2023-12-22T03:10:17;28.1;;;6.9;;
64018;SDS011;66942;52.138;5.216;2023-12-22T03:11:53;26.4;;;6.4;;
64018;SDS011;66942;52.138;5.216;2023-12-22T03:15:06;28.5;;;6.8;;
64018;SDS011;66942;52.138;5.216;2023-12-22T03:16:43;26.0;;;6.1;;
64018;SDS011;66942;52.138;5.216;2023-12-22T03:18:19;24.7;;;6.4;;
64018;SDS011;66942;52.138;5.216;2023-12-22T03:21:31;25.2;;;6.3;;
64018;SDS011;66942;52.138;5.216;2023-12-22T03:23:07;21.7;;;6.2;;
64018;SDS011;66942;52.138;5.216;2023-12-22T03:24:43;20.6;;;5.9;;
64018;SDS011;66942;52.138;5.216;2023-12-22T03:27:55;24.1;;;6.9;;
64018;SDS011;66942;52.138;5.216;2023-12-22T03:29:32;21.2;;;6.6;;
64018;SDS011;66942;52.138;5.216;2023-12-22T03:31:08;20.5;;;6.8;;
64018;SDS011;66942;52.138;5.216;2023-12-22T03:34:20;21.9;;;5.9;;
64018;SDS011;66942;52.138;5.216;2023-12-22T03:35:56;22.4;;;6.7;;
64018;SDS011;66942;52.138;5.216;2023-12-22T03:37:32;23.0;;;6.7;;
64018;SDS011;66942;52.138;5.216;2023-12-22T03:39:08;21.8;;;6.5;;
64018;SDS011;66942;52.138;5.216;2023-12-22T03:42:20;24.5;;;7.2;;
64018;SDS011;66942;52.138;5.216;2023-12-22T03:43:57;25.7;;;7.3;;
64018;SDS011;66942;52.138;5.216;2023-12-22T03:45:34;28.4;;;8.4;;
64018;SDS011;66942;52.138;5.216;2023-12-22T03:48:49;24.8;;;8.0;;
64018;SDS011;66942;52.138;5.216;2023-12-22T03:50:25;24.8;;;6.8;;
64018;SDS011;66942;52.138;5.216;2023-12-22T03:52:01;28.7;;;7.2;;
64018;SDS011;66942;52.138;5.216;2023-12-22T03:55:13;28.8;;;7.5;;
64018;SDS011;66942;52.138;5.216;2023-12-22T03:56:49;27.4;;;7.4;;
64018;SDS011;66942;52.138;5.216;2023-12-22T03:58:30;21.4;;;6.0;;
64018;SDS011;66942;52.138;5.216;2023-12-22T04:00:07;20.8;;;6.1;;
64018;SDS011;66942;52.138;5.216;2023-12-22T04:03:20;19.61;;;5.2;;
64018;SDS011;66942;52.138;5.216;2023-12-22T04:04:56;17.91;;;5.3;;
64018;SDS011;66942;52.138;5.216;2023-12-22T04:06:32;17.2;;;5.0;;
64018;SDS011;66942;52.138;5.216;2023-12-22T04:09:44;18.41;;;5.11;;
64018;SDS011;66942;52.138;5.216;2023-12-22T04:11:20;16.8;;;5.3;;
64018;SDS011;66942;52.138;5.216;2023-12-22T04:12:56;14.1;;;5.0;;
64018;SDS011;66942;52.138;5.216;2023-12-22T04:16:09;18.41;;;5.5;;
64018;SDS011;66942;52.138;5.216;2023-12-22T04:17:45;14.6;;;5.0;;
64018;SDS011;66942;52.138;5.216;2023-12-22T04:19:21;19.0;;;5.3;;
64018;SDS011;66942;52.138;5.216;2023-12-22T04:20:58;16.8;;;4.7;;
64018;SDS011;66942;52.138;5.216;2023-12-22T04:24:10;15.4;;;4.61;;
64018;SDS011;66942;52.138;5.216;2023-12-22T04:25:46;21.4;;;5.6;;
64018;SDS011;66942;52.138;5.216;2023-12-22T04:27:22;16.5;;;5.3;;
64018;SDS011;66942;52.138;5.216;2023-12-22T04:30:35;19.2;;;6.5;;
64018;SDS011;66942;52.138;5.216;2023-12-22T04:32:11;20.9;;;5.4;;
64018;SDS011;66942;52.138;5.216;2023-12-22T04:33:47;21.9;;;5.4;;
64018;SDS011;66942;52.138;5.216;2023-12-22T04:36:59;25.1;;;6.3;;
64018;SDS011;66942;52.138;5.216;2023-12-22T04:38:35;18.7;;;5.8;;
64018;SDS011;66942;52.138;5.216;2023-12-22T04:40:11;21.0;;;5.9;;
64018;SDS011;66942;52.138;5.216;2023-12-22T04:41:47;21.0;;;5.9;;
64018;SDS011;66942;52.138;5.216;2023-12-22T04:45:03;26.8;;;6.7;;
64018;SDS011;66942;52.138;5.216;2023-12-22T04:46:40;25.3;;;6.8;;
64018;SDS011;66942;52.138;5.216;2023-12-22T04:48:16;26.4;;;6.9;;
64018;SDS011;66942;52.138;5.216;2023-12-22T04:51:28;26.0;;;6.4;;
64018;SDS011;66942;52.138;5.216;2023-12-22T04:53:04;29.5;;;6.9;;
64018;SDS011;66942;52.138;5.216;2023-12-22T04:54:40;25.9;;;7.1;;
64018;SDS011;66942;52.138;5.216;2023-12-22T04:57:52;26.0;;;6.8;;
64018;SDS011;66942;52.138;5.216;2023-12-22T04:59:29;23.0;;;7.0;;
64018;SDS011;66942;52.138;5.216;2023-12-22T05:01:05;21.2;;;6.3;;
64018;SDS011;66942;52.138;5.216;2023-12-22T05:04:17;21.2;;;6.3;;
64018;SDS011;66942;52.138;5.216;2023-12-22T05:05:56;22.3;;;6.0;;
64018;SDS011;66942;52.138;5.216;2023-12-22T05:07:32;20.3;;;6.5;;
64018;SDS011;66942;52.138;5.216;2023-12-22T05:09:08;24.1;;;6.1;;
64018;SDS011;66942;52.138;5.216;2023-12-22T05:12:21;26.3;;;6.9;;
64018;SDS011;66942;52.138;5.216;2023-12-22T05:13:57;23.7;;;6.5;;
64018;SDS011;66942;52.138;5.216;2023-12-22T05:15:33;22.9;;;6.8;;
64018;SDS011;66942;52.138;5.216;2023-12-22T05:18:45;22.0;;;6.0;;
64018;SDS011;66942;52.138;5.216;2023-12-22T05:20:22;17.11;;;5.6;;
64018;SDS011;66942;52.138;5.216;2023-12-22T05:21:58;22.3;;;6.1;;
64018;SDS011;66942;52.138;5.216;2023-12-22T05:25:12;16.8;;;5.3;;
64018;SDS011;66942;52.138;5.216;2023-12-22T05:26:49;17.3;;;5.2;;
64018;SDS011;66942;52.138;5.216;2023-12-22T05:28:25;18.3;;;5.2;;
64018;SDS011;66942;52.138;5.216;2023-12-22T05:30:01;20.2;;;5.6;;
64018;SDS011;66942;52.138;5.216;2023-12-22T05:33:14;16.9;;;5.11;;
64018;SDS011;66942;52.138;5.216;2023-12-22T05:34:50;15.0;;;4.8;;
64018;SDS011;66942;52.138;5.216;2023-12-22T05:36:26;17.2;;;5.2;;
64018;SDS011;66942;52.138;5.216;2023-12-22T05:39:39;16.9;;;5.0;;
64018;SDS011;66942;52.138;5.216;2023-12-22T05:41:15;14.7;;;4.61;;
64018;SDS011;66942;52.138;5.216;2023-12-22T05:42:51;11.6;;;4.3;;
64018;SDS011;66942;52.138;5.216;2023-12-22T05:46:03;16.0;;;4.7;;
64018;SDS011;66942;52.138;5.216;2023-12-22T05:47:39;16.0;;;4.61;;
64018;SDS011;66942;52.138;5.216;2023-12-22T05:49:15;16.2;;;5.0;;
64018;SDS011;66942;52.138;5.216;2023-12-22T05:50:51;14.9;;;5.2;;
64018;SDS011;66942;52.138;5.216;2023-12-22T05:54:04;15.9;;;5.0;;
64018;SDS011;66942;52.138;5.216;2023-12-22T05:55:41;15.1;;;5.11;;
64018;SDS011;66942;52.138;5.216;2023-12-22T05:57:17;20.5;;;5.11;;
64018;SDS011;66942;52.138;5.216;2023-12-22T06:00:29;15.5;;;5.2;;
64018;SDS011;66942;52.138;5.216;2023-12-22T06:02:05;21.1;;;5.5;;
64018;SDS011;66942;52.138;5.216;2023-12-22T06:03:41;21.6;;;5.6;;
64018;SDS011;66942;52.138;5.216;2023-12-22T06:06:53;23.0;;;5.8;;
64018;SDS011;66942;52.138;5.216;2023-12-22T06:08:30;27.4;;;6.2;;
64018;SDS011;66942;52.138;5.216;2023-12-22T06:10:06;17.7;;;5.7;;
64018;SDS011;66942;52.138;5.216;2023-12-22T06:13:22;20.0;;;5.5;;
64018;SDS011;66942;52.138;5.216;2023-12-22T06:14:58;22.2;;;5.9;;
64018;SDS011;66942;52.138;5.216;2023-12-22T06:16:34;16.11;;;5.6;;
64018;SDS011;66942;52.138;5.216;2023-12-22T06:18:10;18.8;;;5.6;;
64018;SDS011;66942;52.138;5.216;2023-12-22T06:21:23;18.7;;;5.9;;
64018;SDS011;66942;52.138;5.216;2023-12-22T06:22:59;17.3;;;5.5;;
64018;SDS011;66942;52.138;5.216;2023-12-22T06:24:35;18.41;;;6.2;;
64018;SDS011;66942;52.138;5.216;2023-12-22T06:27:47;21.1;;;6.2;;
64018;SDS011;66942;52.138;5.216;2023-12-22T06:29:23;18.7;;;5.9;;
64018;SDS011;66942;52.138;5.216;2023-12-22T06:30:59;20.8;;;6.3;;
64018;SDS011;66942;52.138;5.216;2023-12-22T06:34:12;21.3;;;6.2;;
64018;SDS011;66942;52.138;5.216;2023-12-22T06:35:48;18.5;;;6.0;;
64018;SDS011;66942;52.138;5.216;2023-12-22T06:37:24;21.8;;;6.6;;
64018;SDS011;66942;52.138;5.216;2023-12-22T06:39:00;18.91;;;5.8;;
64018;SDS011;66942;52.138;5.216;2023-12-22T06:42:13;20.8;;;6.6;;
64018;SDS011;66942;52.138;5.216;2023-12-22T06:43:49;21.4;;;6.1;;
64018;SDS011;66942;52.138;5.216;2023-12-22T06:45:25;22.4;;;6.7;;
64018;SDS011;66942;52.138;5.216;2023-12-22T06:48:38;18.41;;;5.9;;
64018;SDS011;66942;52.138;5.216;2023-12-22T06:50:14;19.5;;;6.6;;
64018;SDS011;66942;52.138;5.216;2023-12-22T06:51:50;23.3;;;6.4;;
64018;SDS011;66942;52.138;5.216;2023-12-22T06:55:02;28.8;;;7.3;;
64018;SDS011;66942;52.138;5.216;2023-12-22T06:56:38;26.0;;;7.8;;
64018;SDS011;66942;52.138;5.216;2023-12-22T06:58:14;24.4;;;7.7;;
64018;SDS011;66942;52.138;5.216;2023-12-22T07:01:27;25.9;;;7.8;;
64018;SDS011;66942;52.138;5.216;2023-12-22T07:03:05;36.4;;;8.31;;
64018;SDS011;66942;52.138;5.216;2023-12-22T07:04:42;23.4;;;7.3;;
64018;SDS011;66942;52.138;5.216;2023-12-22T07:07:17;27.4;;;8.81;;
64018;SDS011;66942;52.138;5.216;2023-12-22T07:08:56;28.8;;;8.2;;
64018;SDS011;66942;52.138;5.216;2023-12-22T07:11:06;31.6;;;8.6;;
64018;SDS011;66942;52.138;5.216;2023-12-22T07:12:42;28.0;;;8.6;;
64018;SDS011;66942;52.138;5.216;2023-12-22T07:15:54;29.1;;;9.21;;
64018;SDS011;66942;52.138;5.216;2023-12-22T07:17:30;28.7;;;7.6;;
64018;SDS011;66942;52.138;5.216;2023-12-22T07:19:10;29.4;;;9.21;;
64018;SDS011;66942;52.138;5.216;2023-12-22T07:20:47;31.9;;;9.31;;
64018;SDS011;66942;52.138;5.216;2023-12-22T07:23:59;33.71;;;10.7;;
64018;SDS011;66942;52.138;5.216;2023-12-22T07:25:36;33.1;;;10.21;;
64018;SDS011;66942;52.138;5.216;2023-12-22T07:27:12;27.1;;;9.21;;
64018;SDS011;66942;52.138;5.216;2023-12-22T07:30:25;31.6;;;9.4;;
64018;SDS011;66942;52.138;5.216;2023-12-22T07:32:01;34.71;;;10.5;;
64018;SDS011;66942;52.138;5.216;2023-12-22T07:33:37;34.71;;;10.5;;
64018;SDS011;66942;52.138;5.216;2023-12-22T07:36:49;35.21;;;10.3;;
64018;SDS011;66942;52.138;5.216;2023-12-22T07:38:25;34.1;;;10.5;;
64018;SDS011;66942;52.138;5.216;2023-12-22T07:40:01;30.4;;;9.31;;
64018;SDS011;66942;52.138;5.216;2023-12-22T07:43:16;32.1;;;8.5;;
64018;SDS011;66942;52.138;5.216;2023-12-22T07:44:52;25.8;;;7.6;;
64018;SDS011;66942;52.138;5.216;2023-12-22T07:46:29;25.6;;;7.9;;
64018;SDS011;66942;52.138;5.216;2023-12-22T07:48:05;25.2;;;7.6;;
64018;SDS011;66942;52.138;5.216;2023-12-22T07:51:17;25.2;;;7.9;;
64018;SDS011;66942;52.138;5.216;2023-12-22T07:52:53;28.6;;;7.8;;
64018;SDS011;66942;52.138;5.216;2023-12-22T07:54:29;31.1;;;8.4;;
64018;SDS011;66942;52.138;5.216;2023-12-22T07:57:41;36.9;;;9.31;;
64018;SDS011;66942;52.138;5.216;2023-12-22T07:59:18;43.9;;;11.4;;
64018;SDS011;66942;52.138;5.216;2023-12-22T08:00:54;37.1;;;10.4;;
64018;SDS011;66942;52.138;5.216;2023-12-22T08:04:06;38.31;;;11.2;;
64018;SDS011;66942;52.138;5.216;2023-12-22T08:05:41;43.0;;;11.0;;
64018;SDS011;66942;52.138;5.216;2023-12-22T08:07:17;40.1;;;11.2;;
64018;SDS011;66942;52.138;5.216;2023-12-22T08:08:53;38.1;;;10.5;;
64018;SDS011;66942;52.138;5.216;2023-12-22T08:12:06;34.5;;;10.8;;
64018;SDS011;66942;52.138;5.216;2023-12-22T08:13:43;38.5;;;10.8;;
64018;SDS011;66942;52.138;5.216;2023-12-22T08:15:22;32.6;;;9.6;;
64018;SDS011;66942;52.138;5.216;2023-12-22T08:18:34;37.71;;;10.4;;
64018;SDS011;66942;52.138;5.216;2023-12-22T08:20:10;29.3;;;8.71;;
64018;SDS011;66942;52.138;5.216;2023-12-22T08:21:46;30.2;;;8.71;;
64018;SDS011;66942;52.138;5.216;2023-12-22T08:24:59;24.6;;;7.2;;
64018;SDS011;66942;52.138;5.216;2023-12-22T08:26:38;20.5;;;6.2;;
64018;SDS011;66942;52.138;5.216;2023-12-22T08:28:14;16.8;;;5.3;;
64018;SDS011;66942;52.138;5.216;2023-12-22T08:29:49;16.3;;;5.3;;
64018;SDS011;66942;52.138;5.216;2023-12-22T08:33:01;13.4;;;4.1;;
64018;SDS011;66942;52.138;5.216;2023-12-22T08:34:38;13.4;;;4.7;;
64018;SDS011;66942;52.138;5.216;2023-12-22T08:36:14;11.8;;;4.41;;
64018;SDS011;66942;52.138;5.216;2023-12-22T08:39:27;15.2;;;5.4;;
64018;SDS011;66942;52.138;5.216;2023-12-22T08:41:03;17.5;;;5.4;;
64018;SDS011;66942;52.138;5.216;2023-12-22T08:42:39;16.8;;;5.11;;
64018;SDS011;66942;52.138;5.216;2023-12-22T08:45:51;21.0;;;6.1;;
64018;SDS011;66942;52.138;5.216;2023-12-22T08:47:27;21.5;;;5.9;;
64018;SDS011;66942;52.138;5.216;2023-12-22T08:49:03;22.6;;;6.8;;
64018;SDS011;66942;52.138;5.216;2023-12-22T08:52:16;22.2;;;7.0;;
64018;SDS011;66942;52.138;5.216;2023-12-22T08:53:52;23.8;;;6.9;;
64018;SDS011;66942;52.138;5.216;2023-12-22T08:55:29;27.9;;;6.9;;
64018;SDS011;66942;52.138;5.216;2023-12-22T08:57:05;23.5;;;7.1;;
64018;SDS011;66942;52.138;5.216;2023-12-22T09:00:17;22.9;;;7.1;;
64018;SDS011;66942;52.138;5.216;2023-12-22T09:01:53;23.3;;;6.9;;
64018;SDS011;66942;52.138;5.216;2023-12-22T09:03:31;24.7;;;7.1;;
64018;SDS011;66942;52.138;5.216;2023-12-22T09:06:46;24.7;;;7.1;;
64018;SDS011;66942;52.138;5.216;2023-12-22T09:08:22;21.3;;;6.1;;
64018;SDS011;66942;52.138;5.216;2023-12-22T09:09:58;20.6;;;6.0;;
64018;SDS011;66942;52.138;5.216;2023-12-22T09:13:14;16.8;;;5.5;;
64018;SDS011;66942;52.138;5.216;2023-12-22T09:14:50;15.3;;;4.91;;
64018;SDS011;66942;52.138;5.216;2023-12-22T09:16:27;12.0;;;3.5;;
64018;SDS011;66942;52.138;5.216;2023-12-22T09:18:03;10.9;;;3.7;;
64018;SDS011;66942;52.138;5.216;2023-12-22T09:21:16;11.1;;;4.0;;
64018;SDS011;66942;52.138;5.216;2023-12-22T09:22:53;11.3;;;3.5;;
64018;SDS011;66942;52.138;5.216;2023-12-22T09:24:29;8.2;;;3.1;;
64018;SDS011;66942;52.138;5.216;2023-12-22T09:27:41;5.11;;;1.6;;
64018;SDS011;66942;52.138;5.216;2023-12-22T09:29:17;5.11;;;1.4;;
64018;SDS011;66942;52.138;5.216;2023-12-22T09:30:53;3.9;;;1.7;;
64018;SDS011;66942;52.138;5.216;2023-12-22T09:34:07;3.2;;;1.8;;
64018;SDS011;66942;52.138;5.216;2023-12-22T09:35:43;3.6;;;1.4;;
64018;SDS011;66942;52.138;5.216;2023-12-22T09:37:19;5.11;;;1.7;;
64018;SDS011;66942;52.138;5.216;2023-12-22T09:38:55;4.41;;;1.7;;
64018;SDS011;66942;52.138;5.216;2023-12-22T09:42:07;4.41;;;1.8;;
64018;SDS011;66942;52.138;5.216;2023-12-22T09:43:43;4.61;;;1.7;;
64018;SDS011;66942;52.138;5.216;2023-12-22T09:45:25;4.61;;;1.8;;
64018;SDS011;66942;52.138;5.216;2023-12-22T09:48:40;4.91;;;1.9;;
64018;SDS011;66942;52.138;5.216;2023-12-22T09:50:18;9.71;;;3.4;;
64018;SDS011;66942;52.138;5.216;2023-12-22T09:51:56;11.4;;;3.7;;
64018;SDS011;66942;52.138;5.216;2023-12-22T09:53:33;19.11;;;4.2;;
64018;SDS011;66942;52.138;5.216;2023-12-22T09:56:52;16.4;;;4.41;;
64018;SDS011;66942;52.138;5.216;2023-12-22T09:58:29;16.4;;;4.41;;
64018;SDS011;66942;52.138;5.216;2023-12-22T10:00:08;12.8;;;4.1;;
64018;SDS011;66942;52.138;5.216;2023-12-22T10:03:23;13.3;;;3.9;;
64018;SDS011;66942;52.138;5.216;2023-12-22T10:05:01;15.9;;;4.0;;
64018;SDS011;66942;52.138;5.216;2023-12-22T10:06:38;11.7;;;3.3;;
64018;SDS011;66942;52.138;5.216;2023-12-22T10:08:15;12.3;;;4.2;;
64018;SDS011;66942;52.138;5.216;2023-12-22T10:11:32;11.0;;;3.5;;
64018;SDS011;66942;52.138;5.216;2023-12-22T10:13:09;15.5;;;3.8;;
64018;SDS011;66942;52.138;5.216;2023-12-22T10:14:46;11.8;;;3.4;;
64018;SDS011;66942;52.138;5.216;2023-12-22T10:17:59;12.7;;;4.1;;
64018;SDS011;66942;52.138;5.216;2023-12-22T10:19:35;11.0;;;3.5;;
64018;SDS011;66942;52.138;5.216;2023-12-22T10:21:11;11.3;;;4.0;;
64018;SDS011;66942;52.138;5.216;2023-12-22T10:22:47;12.4;;;3.9;;
64018;SDS011;66942;52.138;5.216;2023-12-22T10:26:20;8.81;;;3.6;;
64018;SDS011;66942;52.138;5.216;2023-12-22T10:27:56;14.6;;;3.9;;
64018;SDS011;66942;52.138;5.216;2023-12-22T10:29:32;8.5;;;3.5;;
64018;SDS011;66942;52.138;5.216;2023-12-22T10:31:10;13.9;;;3.1;;
64018;SDS011;66942;52.138;5.216;2023-12-22T10:34:22;10.0;;;3.1;;
64018;SDS011;66942;52.138;5.216;2023-12-22T10:35:58;8.9;;;2.9;;
64018;SDS011;66942;52.138;5.216;2023-12-22T10:37:35;10.1;;;3.5;;
64018;SDS011;66942;52.138;5.216;2023-12-22T10:40:47;9.81;;;3.4;;
64018;SDS011;66942;52.138;5.216;2023-12-22T10:42:24;11.8;;;4.2;;
64018;SDS011;66942;52.138;5.216;2023-12-22T10:44:02;9.9;;;3.1;;
64018;SDS011;66942;52.138;5.216;2023-12-22T10:47:17;9.5;;;3.0;;
64018;SDS011;66942;52.138;5.216;2023-12-22T10:48:53;9.6;;;3.5;;
64018;SDS011;66942;52.138;5.216;2023-12-22T10:50:29;11.7;;;3.2;;
64018;SDS011;66942;52.138;5.216;2023-12-22T10:52:05;9.1;;;3.6;;
64018;SDS011;66942;52.138;5.216;2023-12-22T10:55:18;8.71;;;3.2;;
64018;SDS011;66942;52.138;5.216;2023-12-22T10:56:57;9.9;;;3.3;;
64018;SDS011;66942;52.138;5.216;2023-12-22T10:58:34;11.5;;;3.5;;
64018;SDS011;66942;52.138;5.216;2023-12-22T11:01:51;9.0;;;3.1;;
64018;SDS011;66942;52.138;5.216;2023-12-22T11:03:27;11.0;;;3.1;;
64018;SDS011;66942;52.138;5.216;2023-12-22T11:05:13;9.4;;;3.1;;
64018;SDS011;66942;52.138;5.216;2023-12-22T11:06:51;10.5;;;3.2;;
64018;SDS011;66942;52.138;5.216;2023-12-22T11:10:12;10.21;;;3.6;;
64018;SDS011;66942;52.138;5.216;2023-12-22T11:11:49;10.7;;;3.2;;
64018;SDS011;66942;52.138;5.216;2023-12-22T11:13:27;11.0;;;3.6;;
64018;SDS011;66942;52.138;5.216;2023-12-22T11:16:42;9.4;;;3.0;;
64018;SDS011;66942;52.138;5.216;2023-12-22T11:18:19;9.81;;;3.1;;
64018;SDS011;66942;52.138;5.216;2023-12-22T11:19:57;10.0;;;3.8;;
64018;SDS011;66942;52.138;5.216;2023-12-22T11:21:34;8.9;;;3.1;;
64018;SDS011;66942;52.138;5.216;2023-12-22T11:24:51;9.9;;;2.8;;
64018;SDS011;66942;52.138;5.216;2023-12-22T11:26:30;11.1;;;3.7;;
64018;SDS011;66942;52.138;5.216;2023-12-22T11:28:08;9.71;;;2.9;;
64018;SDS011;66942;52.138;5.216;2023-12-22T11:29:48;12.3;;;3.6;;
64018;SDS011;66942;52.138;5.216;2023-12-22T11:33:04;13.4;;;3.3;;
64018;SDS011;66942;52.138;5.216;2023-12-22T11:34:40;10.1;;;3.6;;
64018;SDS011;66942;52.138;5.216;2023-12-22T11:36:19;12.2;;;3.1;;
64018;SDS011;66942;52.138;5.216;2023-12-22T11:39:35;10.3;;;2.9;;
64018;SDS011;66942;52.138;5.216;2023-12-22T11:41:12;9.71;;;3.2;;
64018;SDS011;66942;52.138;5.216;2023-12-22T11:42:53;10.4;;;3.1;;
64018;SDS011;66942;52.138;5.216;2023-12-22T11:44:30;7.6;;;2.9;;
64018;SDS011;66942;52.138;5.216;2023-12-22T11:47:45;9.1;;;3.0;;
64018;SDS011;66942;52.138;5.216;2023-12-22T11:49:28;11.1;;;3.3;;
64018;SDS011;66942;52.138;5.216;2023-12-22T11:51:12;8.31;;;2.7;;
64018;SDS011;66942;52.138;5.216;2023-12-22T11:52:49;8.1;;;2.8;;
64018;SDS011;66942;52.138;5.216;2023-12-22T11:56:23;12.0;;;3.6;;
64018;SDS011;66942;52.138;5.216;2023-12-22T11:58:02;12.2;;;3.1;;
64018;SDS011;66942;52.138;5.216;2023-12-22T12:00:09;9.71;;;3.3;;
64018;SDS011;66942;52.138;5.216;2023-12-22T12:02:14;11.1;;;3.6;;
64018;SDS011;66942;52.138;5.216;2023-12-22T12:03:51;9.71;;;3.2;;
64018;SDS011;66942;52.138;5.216;2023-12-22T12:05:29;12.3;;;4.0;;
64018;SDS011;66942;52.138;5.216;2023-12-22T12:09:13;12.2;;;3.4;;
64018;SDS011;66942;52.138;5.216;2023-12-22T12:10:51;12.6;;;3.9;;
64018;SDS011;66942;52.138;5.216;2023-12-22T12:12:28;10.6;;;3.1;;
64018;SDS011;66942;52.138;5.216;2023-12-22T12:14:07;10.5;;;3.1;;
64018;SDS011;66942;52.138;5.216;2023-12-22T12:17:26;11.1;;;3.5;;
64018;SDS011;66942;52.138;5.216;2023-12-22T12:19:02;10.3;;;3.4;;
64018;SDS011;66942;52.138;5.216;2023-12-22T12:20:38;11.2;;;3.8;;
64018;SDS011;66942;52.138;5.216;2023-12-22T12:22:14;9.4;;;3.1;;
64018;SDS011;66942;52.138;5.216;2023-12-22T12:25:27;12.2;;;4.1;;
64018;SDS011;66942;52.138;5.216;2023-12-22T12:27:05;11.2;;;3.9;;
64018;SDS011;66942;52.138;5.216;2023-12-22T12:28:44;10.0;;;3.2;;
64018;SDS011;66942;52.138;5.216;2023-12-22T12:32:02;11.3;;;3.1;;
64018;SDS011;66942;52.138;5.216;2023-12-22T12:33:39;11.8;;;3.6;;
64018;SDS011;66942;52.138;5.216;2023-12-22T12:35:16;11.2;;;3.4;;
64018;SDS011;66942;52.138;5.216;2023-12-22T12:36:54;11.5;;;3.5;;
64018;SDS011;66942;52.138;5.216;2023-12-22T12:40:18;13.9;;;3.9;;
64018;SDS011;66942;52.138;5.216;2023-12-22T12:41:59;12.3;;;3.1;;
64018;SDS011;66942;52.138;5.216;2023-12-22T12:43:36;10.5;;;3.2;;
64018;SDS011;66942;52.138;5.216;2023-12-22T12:45:19;10.21;;;3.5;;
64018;SDS011;66942;52.138;5.216;2023-12-22T12:48:47;9.31;;;3.8;;